Available data for LMML from the past hour
LUQA/MALTA
Metar
LMML 200015Z 19005KT 9999 -TSRA SCT015CB 10/08 Q1014 RESHRA TEMPO 7000 TSRA BKN015CB

00:15 UTC

Wind: 190° 5kt

Visibility: 9999 m

Sky: SCT 1500 ft

Temp: 10 deg C / 50 deg F

Dewpoint: 8 deg C / 46.4 deg F

Pressure: 1014 hPa

TAF
TAF LMML 192300Z 2000/2024 26010KT 9999 FEW012 SCT018 TEMPO 2000/2017 7000 SHRA BKN014TCU PROB40 2000/2017 VRB20G30KT 3000 TSRAGS BKN008 BKN014CB